Terminal Aerodrome Forecast
Issued by NWS

Home | Current Version | Previous Version | Text Only | Print | Product List | Glossary On
Versions: 1 2 3 4 5 6 7 8 9 10 11 12 13 14 15 16 17 18 19 20 21 22 23 24 25 26 27 28 29 30 31 32 33 34
000
FTUS46 KSGX 151935 AAA
TAFONT
TAF AMD
KONT 151935Z 1520/1624 24006KT 5SM HZ SCT030
     FM152100 25011KT P6SM SKC
     FM160900 VRB04KT 6SM BR OVC012
     FM161800 VRB04KT 5SM HZ SCT020
     FM162100 25009KT P6SM SKC=

USA.gov is the U.S. government's official web portal to all federal, state and local government web resources and services.